Terminal Aerodrome Forecast
Issued by NWS Cleveland, OH

Home | Current Version | Previous Version | Graphics & Text | Print | Product List | Glossary On
Versions: 1 2 3 4 5 6 7 8 9 10 11 12 13 14 15 16 17 18 19 20 21 22 23 24 25 26 27 28 29 30 31 32 33 34 35 36
000
FTUS41 KCLE 270540
TAFCLE
TAF
KCLE 270540Z 2706/2812 19008KT P6SM OVC060
     FM271000 21008KT 6SM BR SCT009 BKN020
      TEMPO 2710/2713 3SM BR BKN009
     FM271500 24008KT P6SM BKN020
     FM271800 24008KT P6SM BKN050
     FM280000 VRB03KT P6SM OVC100
     FM280800 06005KT 5SM -RA BR OVC015=

USA.gov is the U.S. government's official web portal to all federal, state and local government web resources and services.